Time;durP1;ratioP1;P1;durP2;ratioP2;P2;SDS_P1;SDS_P2;PMS_P1;PMS_P2;Temp;Humidity;BMP_temperature;BMP_pressure;BME280_temperature;BME280_humidity;BME280_pressure;Samples;Min_cycle;Max_cycle;Signal;HPM_P1;HPM_P2
2022/12/10 00:00:22;;;;;;;179.30;50.55;;;;;;;0.66;100.00;98282.31;8370924;28;20040;-72
2022/12/10 00:04:43;;;;;;;176.32;52.55;;;;;;;0.61;100.00;98290.28;8371482;28;20790;-73
2022/12/10 00:08:45;;;;;;;175.57;52.15;;;;;;;0.63;100.00;98288.19;8378602;28;20056;-73
2022/12/10 00:12:45;;;;;;;169.68;50.60;;;;;;;0.61;100.00;98284.97;8368103;28;20049;-72
2022/12/10 00:16:47;;;;;;;185.85;49.90;;;;;;;0.64;100.00;98289.75;8364208;28;20060;-73
2022/12/10 00:20:48;;;;;;;189.93;51.90;;;;;;;0.65;100.00;98276.19;8373287;28;20056;-73
2022/12/10 00:24:48;;;;;;;187.20;54.08;;;;;;;0.63;100.00;98280.19;8350123;28;20036;-73
2022/12/10 00:28:51;;;;;;;193.02;53.08;;;;;;;0.68;100.00;98288.19;8373530;28;20040;-73
2022/12/10 00:32:51;;;;;;;175.43;48.33;;;;;;;0.65;100.00;98286.03;8365705;28;20044;-73
2022/12/10 00:36:52;;;;;;;194.65;50.15;;;;;;;0.68;100.00;98285.53;8382464;28;20052;-73
2022/12/10 00:40:53;;;;;;;190.10;50.22;;;;;;;0.59;100.00;98287.09;8385424;28;20461;-73
2022/12/10 00:44:54;;;;;;;176.80;48.83;;;;;;;0.51;100.00;98284.97;8389816;28;20044;-73
2022/12/10 00:48:55;;;;;;;193.68;50.75;;;;;;;0.48;100.00;98280.19;8364716;28;20041;-72
2022/12/10 00:52:56;;;;;;;183.98;50.08;;;;;;;0.57;100.00;98289.22;8388674;28;20186;-74
2022/12/10 00:56:57;;;;;;;173.18;48.85;;;;;;;0.63;100.00;98282.84;8385769;28;20040;-72
2022/12/10 01:01:12;;;;;;;190.98;48.58;;;;;;;0.59;100.00;98293.19;8386258;28;20047;-74
2022/12/10 01:05:13;;;;;;;178.13;48.30;;;;;;;0.58;100.00;98290.81;8385185;28;20040;-72
2022/12/10 01:09:17;;;;;;;179.88;48.63;;;;;;;0.58;100.00;98290.81;8384706;28;20045;-73
2022/12/10 01:13:18;;;;;;;181.18;49.60;;;;;;;0.59;100.00;98281.78;8380620;28;20082;-73
2022/12/10 01:17:20;;;;;;;182.90;49.35;;;;;;;0.60;100.00;98278.06;8370495;28;20045;-72
2022/12/10 01:21:22;;;;;;;176.15;50.35;;;;;;;0.64;100.00;98279.91;8328239;28;20041;-73
2022/12/10 01:25:23;;;;;;;181.52;50.17;;;;;;;0.59;100.00;98281.78;8375724;28;20119;-72
2022/12/10 01:29:24;;;;;;;181.65;49.95;;;;;;;0.56;100.00;98282.31;8352260;28;20044;-73
2022/12/10 01:33:25;;;;;;;175.27;48.00;;;;;;;0.64;100.00;98287.09;8371410;28;20099;-74
2022/12/10 01:37:26;;;;;;;191.50;47.13;;;;;;;0.65;100.00;98291.34;8349096;28;20056;-72
2022/12/10 01:41:38;;;;;;;183.52;48.03;;;;;;;0.63;100.00;98290.84;8348973;28;20056;-73
2022/12/10 01:45:38;;;;;;;178.25;48.63;;;;;;;0.61;100.00;98290.28;8322926;28;20064;-72
2022/12/10 01:49:40;;;;;;;167.52;46.80;;;;;;;0.59;100.00;98292.41;8339943;28;20712;-73
2022/12/10 01:53:42;;;;;;;169.38;47.53;;;;;;;0.64;100.00;98289.75;8347850;28;20075;-73
2022/12/10 01:57:43;;;;;;;174.88;48.83;;;;;;;0.70;100.00;98288.69;8340991;28;20041;-73
2022/12/10 02:01:51;;;;;;;183.23;48.83;;;;;;;0.66;100.00;98287.63;8358829;28;20546;-73
2022/12/10 02:06:01;;;;;;;197.63;51.65;;;;;;;0.65;100.00;98292.16;8339385;28;20404;-74
2022/12/10 02:10:04;;;;;;;185.75;48.47;;;;;;;0.63;100.00;98288.19;8387081;28;20044;-73
2022/12/10 02:14:08;;;;;;;192.73;50.63;;;;;;;0.63;100.00;98282.84;8394440;28;20048;-73
2022/12/10 02:18:12;;;;;;;196.52;50.78;;;;;;;0.61;100.00;98279.66;8382581;28;20063;-72
2022/12/10 02:22:14;;;;;;;191.52;49.20;;;;;;;0.60;100.00;98288.69;8375856;28;20037;-72
2022/12/10 02:26:20;;;;;;;180.85;47.70;;;;;;;0.57;100.00;98289.22;8391430;28;20053;-73
2022/12/10 02:30:22;;;;;;;186.77;50.55;;;;;;;0.61;100.00;98295.59;8387866;28;20214;-73
2022/12/10 02:34:24;;;;;;;187.50;48.05;;;;;;;0.59;100.00;98297.72;8371004;28;20714;-72
2022/12/10 02:38:31;;;;;;;177.10;47.05;;;;;;;0.51;100.00;98284.97;8374201;28;20183;-72
2022/12/10 02:42:36;;;;;;;161.30;45.08;;;;;;;0.48;100.00;98290.81;8386156;28;20156;-73
2022/12/10 02:46:38;;;;;;;161.32;45.47;;;;;;;0.43;100.00;98305.66;8374033;28;20056;-73
2022/12/10 02:50:39;;;;;;;153.13;43.55;;;;;;;0.45;100.00;98309.91;8359615;28;20056;-74
2022/12/10 02:54:48;;;;;;;147.88;45.08;;;;;;;0.46;100.00;98292.91;8372438;28;20044;-72
2022/12/10 02:58:54;;;;;;;142.95;40.85;;;;;;;0.47;100.00;98299.84;8388747;28;20072;-73
2022/12/10 03:03:13;;;;;;;137.45;41.33;;;;;;;0.51;100.00;98311.53;8389011;28;20106;-73
2022/12/10 03:07:33;;;;;;;134.57;41.35;;;;;;;0.51;100.00;98316.84;8367028;28;20059;-74
2022/12/10 03:11:34;;;;;;;127.32;38.92;;;;;;;0.53;100.00;98314.72;8298606;28;20064;-73
2022/12/10 03:15:38;;;;;;;124.68;38.65;;;;;;;0.56;100.00;98314.19;8324824;28;20098;-72
2022/12/10 03:19:44;;;;;;;126.70;40.88;;;;;;;0.52;100.00;98321.09;8273722;28;20483;-72
2022/12/10 03:23:46;;;;;;;116.68;37.30;;;;;;;0.54;100.00;98325.06;8306856;28;20057;-73
2022/12/10 03:27:51;;;;;;;111.40;35.15;;;;;;;0.57;100.00;98315.78;8325629;28;20420;-73
2022/12/10 03:31:53;;;;;;;103.22;35.15;;;;;;;0.51;100.00;98311.53;8321453;28;20053;-72
2022/12/10 03:35:54;;;;;;;110.05;37.15;;;;;;;0.49;100.00;98308.31;8324026;28;20049;-73
2022/12/10 03:39:56;;;;;;;102.70;34.83;;;;;;;0.47;100.00;98318.44;8309824;28;20062;-73
2022/12/10 03:43:58;;;;;;;103.43;34.25;;;;;;;0.50;100.00;98323.22;8381786;28;20048;-74
2022/12/10 03:47:59;;;;;;;108.05;37.13;;;;;;;0.50;100.00;98320.56;8384541;28;20076;-72
2022/12/10 03:52:00;;;;;;;102.28;37.03;;;;;;;0.53;100.00;98314.72;8384559;28;20041;-72
2022/12/10 03:56:01;;;;;;;97.53;34.17;;;;;;;0.51;100.00;98316.84;8390814;28;20051;-74
2022/12/10 04:00:04;;;;;;;111.72;36.42;;;;;;;0.51;100.00;98314.19;8384910;28;20059;-72
2022/12/10 04:04:06;;;;;;;103.30;34.22;;;;;;;0.46;100.00;98311.50;8377718;28;20044;-72
2022/12/10 04:08:07;;;;;;;105.32;36.10;;;;;;;0.43;100.00;98320.78;8383557;28;20423;-73
2022/12/10 04:12:07;;;;;;;109.45;35.85;;;;;;;0.42;100.00;98325.31;8394152;28;20053;-72
2022/12/10 04:16:27;;;;;;;104.18;34.25;;;;;;;0.41;100.00;98326.38;8387739;28;20398;-73
2022/12/10 04:29:07;;;;;;;107.10;35.60;;;;;;;0.48;100.00;98328.00;8377946;28;20407;-73
2022/12/10 04:33:08;;;;;;;106.40;38.55;;;;;;;0.42;100.00;98329.84;8375264;28;20053;-73
2022/12/10 04:37:11;;;;;;;107.45;36.45;;;;;;;0.39;100.00;98335.66;8374931;28;20052;-73
2022/12/10 04:41:15;;;;;;;116.60;39.13;;;;;;;0.39;100.00;98341.78;8388839;28;20059;-73
2022/12/10 04:45:16;;;;;;;111.32;37.63;;;;;;;0.42;100.00;98338.59;8366718;28;20598;-73
2022/12/10 04:49:17;;;;;;;112.57;37.58;;;;;;;0.38;100.00;98334.06;8383829;28;20056;-72
2022/12/10 04:53:18;;;;;;;113.07;39.50;;;;;;;0.34;100.00;98339.09;8392082;28;20665;-73
2022/12/10 04:57:19;;;;;;;125.28;39.00;;;;;;;0.32;100.00;98346.53;8383921;28;20502;-73
2022/12/10 05:01:20;;;;;;;113.85;36.65;;;;;;;0.32;100.00;98351.84;8394256;28;20076;-72
2022/12/10 05:05:21;;;;;;;114.57;37.00;;;;;;;0.31;100.00;98355.56;8372743;28;20537;-74
2022/12/10 05:09:22;;;;;;;116.75;39.08;;;;;;;0.33;100.00;98348.13;8393670;28;20136;-73
2022/12/10 05:13:23;;;;;;;122.75;41.35;;;;;;;0.37;100.00;98349.19;8389937;28;20052;-74
2022/12/10 05:17:24;;;;;;;115.38;38.70;;;;;;;0.36;100.00;98352.94;8374484;28;20040;-73
2022/12/10 05:25:52;;;;;;;112.03;35.65;;;;;;;0.34;100.00;98349.72;8390353;28;20049;-73
2022/12/10 05:29:53;;;;;;;111.28;40.00;;;;;;;0.36;100.00;98358.25;8381666;28;20056;-72
2022/12/10 05:33:56;;;;;;;110.88;37.63;;;;;;;0.30;100.00;98363.78;8380779;28;20041;-73
2022/12/10 05:37:57;;;;;;;106.95;38.63;;;;;;;0.34;100.00;98364.88;8379622;28;20079;-73
2022/12/10 05:41:58;;;;;;;111.90;40.28;;;;;;;0.31;100.00;98371.50;8383736;28;20048;-72
2022/12/10 05:46:04;;;;;;;102.22;38.40;;;;;;;0.21;100.00;98366.13;8393433;28;20127;-72
2022/12/10 05:50:06;;;;;;;111.72;38.85;;;;;;;0.20;100.00;98359.25;8351219;28;20056;-72
2022/12/10 05:54:08;;;;;;;105.07;36.15;;;;;;;0.17;100.00;98366.91;8370120;28;20487;-72
2022/12/10 05:58:10;;;;;;;102.50;36.80;;;;;;;0.15;100.00;98380.47;8374281;28;20053;-73
2022/12/10 06:02:11;;;;;;;102.15;37.50;;;;;;;0.19;100.00;98384.19;8395090;28;20398;-72
2022/12/10 06:06:12;;;;;;;99.50;35.33;;;;;;;0.15;100.00;98383.13;8376635;28;20055;-73
2022/12/10 06:10:13;;;;;;;102.68;38.53;;;;;;;0.14;100.00;98380.72;8393217;28;20535;-73
2022/12/10 06:14:14;;;;;;;88.43;34.97;;;;;;;0.12;100.00;98378.31;8335353;28;20045;-72
2022/12/10 06:18:15;;;;;;;92.20;34.83;;;;;;;0.15;100.00;98377.81;8378065;28;20498;-75
2022/12/10 06:22:16;;;;;;;90.55;35.28;;;;;;;0.13;100.00;98385.22;8398843;28;20059;-73
2022/12/10 06:26:23;;;;;;;94.18;34.83;;;;;;;0.21;100.00;98386.59;8396947;28;20650;-72
2022/12/10 06:30:25;;;;;;;89.85;34.75;;;;;;;0.16;100.00;98384.69;8360375;28;20056;-73
2022/12/10 06:34:26;;;;;;;87.10;34.50;;;;;;;0.11;100.00;98391.84;8381290;28;20063;-73
2022/12/10 06:38:28;;;;;;;77.75;30.70;;;;;;;0.07;100.00;98386.25;8383532;28;20045;-73
2022/12/10 06:42:28;;;;;;;84.25;30.77;;;;;;;0.13;100.00;98390.53;8378577;28;20102;-72
2022/12/10 06:46:30;;;;;;;78.63;30.73;;;;;;;0.05;100.00;98377.78;8376803;28;20075;-72
2022/12/10 06:50:30;;;;;;;75.95;31.45;;;;;;;0.07;100.00;98372.97;8362655;28;20044;-73
2022/12/10 06:54:32;;;;;;;81.38;33.15;;;;;;;0.04;100.00;98376.16;8396629;28;20048;-73
2022/12/10 06:58:34;;;;;;;78.28;32.05;;;;;;;0.09;100.00;98378.84;8396071;28;20155;-74
2022/12/10 07:02:35;;;;;;;78.50;32.78;;;;;;;0.04;100.00;98381.47;8396201;28;20067;-73
2022/12/10 07:06:36;;;;;;;84.30;34.20;;;;;;;0.00;100.00;98380.41;8395746;28;20479;-72
2022/12/10 07:10:37;;;;;;;79.10;33.05;;;;;;;0.08;100.00;98387.84;8395997;28;20418;-72
2022/12/10 07:14:38;;;;;;;82.55;33.78;;;;;;;0.11;100.00;98386.53;8396115;28;20059;-73
2022/12/10 07:18:39;;;;;;;80.80;31.63;;;;;;;0.08;100.00;98387.84;8395748;28;20056;-73
2022/12/10 07:22:40;;;;;;;95.18;36.50;;;;;;;0.08;100.00;98398.47;8395437;28;20049;-72
2022/12/10 07:26:43;;;;;;;87.90;34.53;;;;;;;0.05;100.00;98404.31;8395425;28;20063;-73
2022/12/10 07:30:43;;;;;;;84.05;35.55;;;;;;;0.03;100.00;98400.31;8376466;28;20534;-73
2022/12/10 07:34:44;;;;;;;87.43;35.38;;;;;;;0.08;100.00;98397.69;8382019;28;20044;-72
2022/12/10 07:38:46;;;;;;;88.10;34.83;;;;;;;0.07;100.00;98407.50;8395204;28;20565;-72
2022/12/10 07:42:47;;;;;;;93.47;36.13;;;;;;;0.01;100.00;98411.16;8394785;28;20053;-73
2022/12/10 07:46:49;;;;;;;95.68;36.15;;;;;;;0.06;100.00;98416.50;8381652;28;20423;-74
2022/12/10 07:50:56;;;;;;;91.65;37.42;;;;;;;0.07;100.00;98407.50;8393484;28;20049;-72
2022/12/10 07:54:57;;;;;;;87.37;35.17;;;;;;;0.09;100.00;98410.69;8394264;28;20059;-75
2022/12/10 07:58:58;;;;;;;96.63;36.50;;;;;;;0.07;100.00;98407.50;8375433;28;20044;-72
2022/12/10 08:02:59;;;;;;;91.20;35.35;;;;;;;0.13;100.00;98403.81;8394258;28;20048;-73
2022/12/10 08:07:00;;;;;;;84.68;34.80;;;;;;;0.12;100.00;98399.56;8375126;28;20044;-74
2022/12/10 08:11:02;;;;;;;85.25;33.80;;;;;;;0.11;100.00;98413.88;8380778;28;20056;-73
2022/12/10 08:15:03;;;;;;;88.22;37.50;;;;;;;0.15;100.00;98415.00;8380691;28;20556;-75
2022/12/10 08:19:05;;;;;;;89.05;35.80;;;;;;;0.12;100.00;98420.78;8358194;28;20060;-73
2022/12/10 08:23:06;;;;;;;90.28;36.83;;;;;;;0.10;100.00;98420.28;8393323;28;20481;-73
2022/12/10 08:27:08;;;;;;;87.57;36.00;;;;;;;0.14;100.00;98426.66;8394074;28;20063;-73
2022/12/10 08:31:11;;;;;;;88.32;34.55;;;;;;;0.14;100.00;98429.31;8382715;28;20560;-72
2022/12/10 08:35:12;;;;;;;92.05;36.63;;;;;;;0.24;99.75;98434.69;8373921;28;20049;-73
2022/12/10 08:39:16;;;;;;;90.22;36.70;;;;;;;0.27;99.66;98428.84;8390345;28;20114;-72
2022/12/10 08:43:17;;;;;;;90.22;37.08;;;;;;;0.31;99.34;98434.44;8368765;28;20060;-73
2022/12/10 08:47:19;;;;;;;94.45;35.60;;;;;;;0.28;99.32;98440.25;8392944;28;20048;-72
2022/12/10 08:51:20;;;;;;;83.47;34.47;;;;;;;0.24;99.40;98434.69;8391937;28;20052;-73
2022/12/10 08:55:21;;;;;;;88.15;36.08;;;;;;;0.30;99.34;98433.66;8393101;28;20049;-73
2022/12/10 08:59:22;;;;;;;89.97;37.63;;;;;;;0.34;98.79;98440.03;8383604;28;20049;-73
2022/12/10 09:03:23;;;;;;;112.97;42.40;;;;;;;0.38;98.94;98441.09;8389236;28;20102;-73
2022/12/10 09:07:24;;;;;;;133.65;51.75;;;;;;;0.47;98.71;98432.66;8392735;28;20048;-74
2022/12/10 09:11:31;;;;;;;138.77;51.95;;;;;;;0.53;97.74;98442.25;8390977;28;20105;-73
2022/12/10 09:15:33;;;;;;;84.97;34.45;;;;;;;0.51;98.05;98439.03;8354387;28;20139;-73
2022/12/10 09:19:34;;;;;;;80.45;32.50;;;;;;;0.59;97.27;98441.19;8375436;28;20049;-74
2022/12/10 09:23:35;;;;;;;86.95;36.28;;;;;;;0.62;97.58;98446.00;8392565;28;20353;-72
2022/12/10 09:27:38;;;;;;;91.65;35.72;;;;;;;0.68;97.02;98434.34;8393064;28;20106;-72
2022/12/10 09:31:40;;;;;;;88.03;36.00;;;;;;;0.72;97.04;98430.09;8383828;28;20051;-73
2022/12/10 09:35:42;;;;;;;95.78;36.03;;;;;;;0.75;95.91;98424.25;8375848;28;20539;-73
2022/12/10 09:39:43;;;;;;;72.50;32.13;;;;;;;0.75;96.32;98417.06;8364026;28;20049;-73
2022/12/10 09:43:49;;;;;;;79.45;33.65;;;;;;;0.67;96.17;98422.09;8398575;28;20055;-73
2022/12/10 09:48:11;;;;;;;87.88;34.58;;;;;;;0.65;96.39;98430.31;8398497;28;20078;-72
2022/12/10 09:52:15;;;;;;;89.10;35.03;;;;;;;0.66;96.20;98425.81;8394554;28;20048;-72
2022/12/10 09:56:22;;;;;;;81.75;33.58;;;;;;;0.66;96.28;98425.81;8373722;28;20127;-73
2022/12/10 10:00:37;;;;;;;93.10;36.40;;;;;;;0.74;96.17;98422.66;8350360;28;20052;-73
2022/12/10 10:04:38;;;;;;;90.88;34.95;;;;;;;0.79;95.97;98420.03;8385346;28;20049;-72
2022/12/10 10:09:05;;;;;;;89.53;33.65;;;;;;;0.77;95.45;98411.50;8397313;28;20071;-73
2022/12/10 10:13:40;;;;;;;86.45;34.08;;;;;;;0.72;95.88;98411.47;8243541;28;20046;-73
2022/12/10 10:17:45;;;;;;;88.22;35.38;;;;;;;0.79;95.57;98410.16;8237584;28;20149;-73
2022/12/10 10:21:48;;;;;;;80.60;32.42;;;;;;;0.80;95.34;98408.31;8231394;28;20508;-71
2022/12/10 10:25:50;;;;;;;93.93;35.33;;;;;;;0.78;95.26;98397.16;8261801;28;20050;-73
2022/12/10 10:29:53;;;;;;;104.65;37.17;;;;;;;0.84;95.56;98390.78;8262086;28;20050;-74
2022/12/10 10:34:00;;;;;;;100.75;37.08;;;;;;;0.93;95.29;98389.22;8262005;28;20093;-72
2022/12/10 10:38:05;;;;;;;97.13;36.50;;;;;;;0.97;94.91;98395.59;8261738;28;20110;-72
2022/12/10 10:42:09;;;;;;;97.65;37.88;;;;;;;1.01;94.80;98386.00;8261735;28;20122;-73
2022/12/10 10:46:13;;;;;;;100.85;38.20;;;;;;;1.07;93.98;98384.97;8261055;28;20046;-73
2022/12/10 10:50:24;;;;;;;86.85;34.53;;;;;;;1.07;94.04;98384.16;8355406;28;20078;-72
2022/12/10 10:54:34;;;;;;;91.10;36.80;;;;;;;1.09;94.56;98377.53;8396986;28;20068;-73
2022/12/10 10:58:44;;;;;;;87.47;37.17;;;;;;;1.03;94.33;98383.91;8382259;28;20044;-74
2022/12/10 11:02:46;;;;;;;91.45;37.47;;;;;;;0.95;94.57;98376.47;8395395;28;20127;-72
2022/12/10 11:06:50;;;;;;;98.80;39.28;;;;;;;0.95;94.49;98376.47;8395480;28;20071;-72
2022/12/10 11:11:01;;;;;;;91.45;37.58;;;;;;;0.95;94.98;98375.66;8395986;28;20048;-72
2022/12/10 11:15:22;;;;;;;98.32;39.08;;;;;;;0.91;95.02;98370.06;8395079;28;20064;-73
2022/12/10 11:19:26;;;;;;;91.00;38.30;;;;;;;0.95;94.98;98371.16;8395549;28;20475;-73
2022/12/10 11:23:30;;;;;;;95.70;38.55;;;;;;;0.95;94.70;98376.47;8376990;28;20417;-73
2022/12/10 11:27:49;;;;;;;152.38;55.35;;;;;;;0.88;94.69;98396.38;8394882;28;20457;-74
2022/12/10 11:32:27;;;;;;;101.47;41.15;;;;;;;0.81;94.59;98392.09;8370177;28;20076;-73
2022/12/10 11:36:42;;;;;;;107.88;41.15;;;;;;;0.76;95.33;98399.25;8382881;28;20053;-73
2022/12/10 11:40:50;;;;;;;111.72;40.53;;;;;;;0.78;95.18;98403.28;8344010;28;20067;-72
2022/12/10 11:45:00;;;;;;;103.63;40.35;;;;;;;0.82;94.67;98412.31;8385358;28;20048;-72
2022/12/10 11:49:43;;;;;;;111.32;45.65;;;;;;;0.83;94.73;98416.56;8390615;28;20048;-73
2022/12/10 11:54:07;;;;;;;102.60;40.92;;;;;;;0.74;94.87;98417.34;8391434;28;20407;-74
2022/12/10 11:58:26;;;;;;;100.07;39.03;;;;;;;0.68;94.99;98413.06;8391311;28;20140;-73
2022/12/10 12:02:57;;;;;;;100.75;39.75;;;;;;;0.67;94.85;98422.09;8373987;28;20487;-72
2022/12/10 12:07:16;;;;;;;110.75;43.13;;;;;;;0.62;95.10;98424.75;8291406;28;20500;-73
2022/12/10 12:11:18;;;;;;;104.05;41.05;;;;;;;0.65;95.28;98414.38;8291288;28;20054;-73
2022/12/10 12:15:20;;;;;;;105.53;43.10;;;;;;;0.70;95.08;98417.06;8291370;28;20050;-73
2022/12/10 12:19:49;;;;;;;95.38;39.03;;;;;;;0.66;95.35;98436.44;8274858;28;20537;-73
2022/12/10 12:24:22;;;;;;;98.57;40.22;;;;;;;0.65;95.56;98424.22;8162595;29;20051;-73
2022/12/10 12:28:31;;;;;;;108.72;40.47;;;;;;;0.65;95.50;98408.25;8147192;29;20196;-72
2022/12/10 12:32:39;;;;;;;109.18;41.05;;;;;;;0.70;95.51;98405.63;8147201;29;20083;-72
2022/12/10 12:36:40;;;;;;;106.78;41.38;;;;;;;0.69;95.53;98414.66;8146760;29;20059;-72
2022/12/10 12:41:27;;;;;;;112.70;44.40;;;;;;;0.70;95.80;98400.31;8165207;28;20110;-73
2022/12/10 12:45:31;;;;;;;108.07;43.35;;;;;;;0.64;95.35;98396.03;8025212;29;20061;-73
2022/12/10 12:49:35;;;;;;;113.88;45.00;;;;;;;0.65;95.44;98387.00;8069018;29;20428;-73
2022/12/10 12:53:36;;;;;;;113.03;44.80;;;;;;;0.66;95.60;98388.59;8092257;29;20060;-73
2022/12/10 12:57:53;;;;;;;109.93;42.67;;;;;;;0.72;95.61;98398.19;8130985;29;20080;-73
2022/12/10 13:02:02;;;;;;;111.30;42.38;;;;;;;0.63;95.44;98394.47;8130929;29;20088;-72
2022/12/10 13:06:17;;;;;;;;;;;;;;;0.62;96.09;98393.66;8131497;29;20533;-71
2022/12/10 13:10:23;;;;;;;136.75;50.75;;;;;;;0.54;95.86;98398.66;8133969;29;20401;-73
2022/12/10 13:14:36;;;;;;;118.65;45.50;;;;;;;0.61;95.94;98407.19;8121356;29;20429;-73
2022/12/10 13:18:39;;;;;;;115.90;44.78;;;;;;;0.60;95.97;98417.03;8125897;29;20048;-73
2022/12/10 13:22:44;;;;;;;112.90;41.45;;;;;;;0.54;96.02;98401.31;8329454;28;20052;-73
2022/12/10 13:27:11;;;;;;;109.65;42.10;;;;;;;0.47;96.45;98406.09;8391636;28;20480;-73
2022/12/10 13:31:15;;;;;;;136.27;53.83;;;;;;;0.50;96.21;98405.56;8389306;28;20051;-74
2022/12/10 13:35:24;;;;;;;127.38;47.72;;;;;;;0.50;96.55;98410.88;8385688;28;20065;-72
2022/12/10 13:39:25;;;;;;;108.95;41.33;;;;;;;0.54;96.51;98417.25;8384291;28;20094;-72
2022/12/10 13:47:48;;;;;;;105.65;39.90;;;;;;;0.55;96.48;98419.66;8386221;28;20056;-73
2022/12/10 13:52:05;;;;;;;123.80;42.22;;;;;;;0.58;96.13;98428.97;8398704;28;20048;-73
2022/12/10 13:56:24;;;;;;;140.45;48.30;;;;;;;0.61;95.96;98428.44;8398632;28;20048;-75
2022/12/10 14:00:36;;;;;;;124.60;49.13;;;;;;;0.58;96.22;98423.66;8398090;28;20036;-72
2022/12/10 14:05:02;;;;;;;121.97;46.50;;;;;;;0.53;96.35;98426.31;8380166;28;20431;-73
2022/12/10 14:09:06;;;;;;;113.35;44.22;;;;;;;0.49;96.31;98419.91;8395633;28;20052;-73
2022/12/10 14:13:11;;;;;;;109.72;41.95;;;;;;;0.53;96.40;98426.31;8397930;28;20052;-74
2022/12/10 14:17:18;;;;;;;113.68;42.00;;;;;;;0.55;96.26;98426.84;8397871;28;20490;-72
2022/12/10 14:21:20;;;;;;;110.80;40.33;;;;;;;0.52;96.23;98436.13;8396700;28;20113;-73
2022/12/10 14:25:22;;;;;;;97.80;38.22;;;;;;;0.40;96.57;98416.94;8361848;28;20052;-74
2022/12/10 14:29:24;;;;;;;106.25;38.97;;;;;;;0.42;96.62;98426.25;8397438;28;20448;-72
2022/12/10 14:33:25;;;;;;;105.22;37.13;;;;;;;0.40;96.63;98433.69;8397283;28;20053;-73
2022/12/10 14:37:29;;;;;;;105.40;37.20;;;;;;;0.40;96.60;98433.69;8395660;28;20518;-73
2022/12/10 14:41:31;;;;;;;106.28;39.65;;;;;;;0.47;96.72;98432.66;8395174;28;20036;-72
2022/12/10 14:45:56;;;;;;;106.82;36.88;;;;;;;0.45;96.50;98445.38;8395727;28;20410;-73
2022/12/10 14:49:57;;;;;;;87.22;34.08;;;;;;;0.42;96.60;98449.38;8396508;28;20052;-73
2022/12/10 14:53:58;;;;;;;103.05;35.70;;;;;;;0.42;96.76;98447.50;8396179;28;20073;-73
2022/12/10 14:58:03;;;;;;;100.47;36.17;;;;;;;0.39;96.81;98458.66;8396635;28;20064;-72
2022/12/10 15:02:14;;;;;;;92.25;34.95;;;;;;;0.43;96.43;98464.22;8395327;28;20048;-73
2022/12/10 15:06:17;;;;;;;93.80;35.20;;;;;;;0.43;96.67;98465.03;8396469;28;20491;-73
2022/12/10 15:10:23;;;;;;;92.55;34.47;;;;;;;0.45;96.45;98456.00;8395081;28;20545;-73
2022/12/10 15:14:26;;;;;;;100.30;35.15;;;;;;;0.41;96.80;98456.53;8394996;28;20052;-72
2022/12/10 15:18:37;;;;;;;104.80;35.80;;;;;;;0.35;96.96;98452.25;8394539;28;20491;-73
2022/12/10 15:22:38;;;;;;;107.13;38.38;;;;;;;0.40;96.73;98460.25;8395776;28;20193;-73
2022/12/10 15:26:44;;;;;;;110.55;39.40;;;;;;;0.41;96.70;98456.53;8395744;28;20400;-73
2022/12/10 15:30:50;;;;;;;108.07;39.13;;;;;;;0.49;96.76;98463.22;8395435;28;20056;-73
2022/12/10 15:35:00;;;;;;;109.03;38.08;;;;;;;0.49;96.67;98467.72;8395259;28;20048;-72
2022/12/10 15:39:16;;;;;;;103.90;37.53;;;;;;;0.51;96.61;98470.94;8363027;28;20073;-73
2022/12/10 15:43:29;;;;;;;103.80;39.17;;;;;;;0.52;96.59;98461.91;8394939;28;20048;-73
2022/12/10 15:47:30;;;;;;;109.93;36.47;;;;;;;0.49;96.60;98467.72;8394544;28;20599;-72
2022/12/10 15:51:31;;;;;;;107.95;39.78;;;;;;;0.46;96.79;98462.94;8394906;28;20049;-72
2022/12/10 15:55:32;;;;;;;104.45;38.35;;;;;;;0.38;96.77;98470.31;8361014;28;20052;-73
2022/12/10 15:59:33;;;;;;;116.63;39.30;;;;;;;0.37;97.00;98474.03;8394829;28;20049;-73
2022/12/10 16:03:34;;;;;;;117.25;39.22;;;;;;;0.42;96.73;98483.91;8393693;28;20060;-73
2022/12/10 16:07:35;;;;;;;109.85;37.78;;;;;;;0.42;96.85;98476.72;8393325;28;20556;-72
2022/12/10 16:11:40;;;;;;;117.32;38.33;;;;;;;0.47;96.53;98469.84;8391643;28;20083;-73
2022/12/10 16:16:04;;;;;;;117.75;39.28;;;;;;;0.43;96.76;98474.84;8359330;28;20052;-73
2022/12/10 16:20:27;;;;;;;114.65;38.25;;;;;;;0.36;97.02;98471.66;8291210;28;20136;-74
2022/12/10 16:24:28;;;;;;;106.60;37.72;;;;;;;0.33;97.03;98469.50;8291202;28;20137;-73
2022/12/10 16:28:29;;;;;;;115.20;37.20;;;;;;;0.30;97.33;98470.81;8291330;28;20072;-73
2022/12/10 16:32:30;;;;;;;108.25;37.05;;;;;;;0.28;97.47;98462.31;8277323;28;20088;-74
2022/12/10 16:36:32;;;;;;;110.30;37.65;;;;;;;0.30;97.19;98460.19;8290747;28;20057;-74
2022/12/10 16:40:33;;;;;;;124.45;39.28;;;;;;;0.35;97.03;98468.19;8274731;28;20409;-72
2022/12/10 16:44:34;;;;;;;118.85;38.88;;;;;;;0.34;97.49;98457.81;8257860;28;20064;-72
2022/12/10 16:48:35;;;;;;;116.70;39.78;;;;;;;0.35;97.23;98457.56;8274264;28;20385;-73
2022/12/10 16:52:36;;;;;;;125.57;37.47;;;;;;;0.39;96.87;98458.66;8257848;28;20133;-72
2022/12/10 16:56:37;;;;;;;114.85;39.65;;;;;;;0.37;97.33;98459.97;8342716;28;20045;-74
2022/12/10 17:00:39;;;;;;;130.30;41.35;;;;;;;0.33;96.97;98462.34;8393186;28;20621;-72
2022/12/10 17:04:40;;;;;;;112.63;39.20;;;;;;;0.31;97.14;98456.50;8393210;28;20534;-73
2022/12/10 17:08:41;;;;;;;112.35;40.05;;;;;;;0.30;97.20;98448.78;8392868;28;20057;-73
2022/12/10 17:12:42;;;;;;;124.55;43.15;;;;;;;0.30;97.49;98449.59;8391989;28;20402;-73
2022/12/10 17:16:43;;;;;;;130.80;42.63;;;;;;;0.27;97.58;98455.38;8392686;28;20051;-74
2022/12/10 17:20:45;;;;;;;125.22;42.30;;;;;;;0.25;97.37;98462.84;8380331;28;20055;-73
2022/12/10 17:24:48;;;;;;;121.35;45.33;;;;;;;0.16;97.46;98459.03;8392325;28;20410;-72
2022/12/10 17:28:49;;;;;;;122.57;43.70;;;;;;;0.13;97.39;98470.19;8392911;28;20083;-74
2022/12/10 17:32:52;;;;;;;121.78;44.25;;;;;;;0.15;97.56;98457.47;8355178;28;20081;-72
2022/12/10 17:36:54;;;;;;;123.68;43.05;;;;;;;0.15;97.91;98462.78;8333614;28;20056;-72
2022/12/10 17:40:55;;;;;;;117.47;42.92;;;;;;;0.21;97.77;98459.06;8308937;28;20099;-74
2022/12/10 17:44:56;;;;;;;129.65;44.97;;;;;;;0.22;97.42;98458.03;8355266;28;20053;-73
2022/12/10 17:48:57;;;;;;;117.65;41.95;;;;;;;0.19;97.26;98471.03;8321909;28;20080;-73
2022/12/10 17:52:59;;;;;;;130.20;45.28;;;;;;;0.22;97.50;98479.25;8355455;28;20049;-73
2022/12/10 17:57:00;;;;;;;124.30;43.78;;;;;;;0.24;97.36;98482.47;8357592;28;20079;-73
2022/12/10 18:01:01;;;;;;;124.93;44.70;;;;;;;0.25;97.10;98484.06;8361339;28;20087;-73
2022/12/10 18:05:02;;;;;;;122.82;44.63;;;;;;;0.29;97.05;98495.78;8395315;28;20486;-72
2022/12/10 18:09:06;;;;;;;118.68;41.75;;;;;;;0.30;96.95;98502.69;8369238;28;20056;-74
2022/12/10 18:13:07;;;;;;;112.68;40.80;;;;;;;0.24;97.23;98509.03;8397356;28;20054;-74
2022/12/10 18:17:13;;;;;;;123.38;42.50;;;;;;;0.26;97.15;98512.25;8379134;28;20412;-74
2022/12/10 18:21:17;;;;;;;133.60;43.47;;;;;;;0.18;97.39;98510.06;8398207;28;20077;-73
2022/12/10 18:25:19;;;;;;;120.82;43.30;;;;;;;0.23;97.50;98510.09;8397593;28;20053;-74
2022/12/10 18:29:20;;;;;;;125.72;42.92;;;;;;;0.23;97.21;98502.13;8397036;28;20495;-73
2022/12/10 18:33:22;;;;;;;124.95;45.35;;;;;;;0.22;97.01;98495.19;8397218;28;20049;-74
2022/12/10 18:37:22;;;;;;;125.38;41.88;;;;;;;0.23;97.51;98486.19;8397060;28;20091;-72
2022/12/10 18:41:24;;;;;;;117.35;43.10;;;;;;;0.25;96.99;98476.13;8345189;28;20306;-72
2022/12/10 18:45:25;;;;;;;118.32;43.38;;;;;;;0.23;97.24;98480.88;8364449;28;20090;-73
2022/12/10 18:49:29;;;;;;;114.95;42.55;;;;;;;0.14;97.39;98471.78;8395455;28;20548;-73
2022/12/10 18:53:30;;;;;;;124.95;44.58;;;;;;;0.19;97.49;98473.69;8396346;28;20063;-74
2022/12/10 18:57:31;;;;;;;125.95;45.03;;;;;;;0.08;97.65;98462.19;8383413;28;20388;-73
2022/12/10 19:01:33;;;;;;;111.70;41.42;;;;;;;0.12;97.63;98463.28;8395915;28;20048;-73